Time;durP1;ratioP1;P1;durP2;ratioP2;P2;SDS_P1;SDS_P2;PMS_P1;PMS_P2;Temp;Humidity;BMP_temperature;BMP_pressure;BME280_temperature;BME280_humidity;BME280_pressure;Samples;Min_cycle;Max_cycle;Signal;HPM_P1;HPM_P2
2021/10/01 00:01:29;;;;;;;10.23;2.75;;;;;;;12.10;66.06;101847.69;5096236;28;20553;-66
2021/10/01 00:03:56;;;;;;;14.85;3.38;;;;;;;12.02;65.99;101845.69;5094333;28;20479;-66
2021/10/01 00:06:23;;;;;;;13.05;3.88;;;;;;;12.03;65.81;101833.25;5095847;28;20039;-66
2021/10/01 00:08:49;;;;;;;9.75;2.90;;;;;;;11.99;66.27;101831.81;5094796;28;20047;-66
2021/10/01 00:11:16;;;;;;;12.95;3.00;;;;;;;12.11;65.69;101828.06;5067944;28;20044;-65
2021/10/01 00:13:43;;;;;;;11.07;2.90;;;;;;;11.98;66.53;101824.81;5096373;28;20388;-66
2021/10/01 00:16:10;;;;;;;16.33;3.08;;;;;;;12.04;65.37;101819.81;5095566;28;20047;-66
2021/10/01 00:18:37;;;;;;;11.98;2.80;;;;;;;11.99;65.74;101815.84;5095887;28;20088;-66
2021/10/01 00:21:05;;;;;;;9.85;3.25;;;;;;;11.98;66.26;101817.69;5095166;28;20040;-66
2021/10/01 00:23:32;;;;;;;15.27;2.88;;;;;;;11.87;66.06;101813.28;5089215;28;20036;-66
2021/10/01 00:25:59;;;;;;;11.95;2.72;;;;;;;11.92;66.04;101810.25;5096108;28;20058;-66
2021/10/01 00:28:26;;;;;;;15.10;2.90;;;;;;;11.86;66.47;101811.63;5095956;28;20437;-65
2021/10/01 00:30:53;;;;;;;13.30;2.88;;;;;;;11.81;66.37;101805.03;5094116;28;20496;-66
2021/10/01 00:33:20;;;;;;;10.10;2.53;;;;;;;11.81;65.35;101803.22;5092697;28;20087;-66
2021/10/01 00:35:47;;;;;;;11.10;2.85;;;;;;;11.91;66.34;101803.25;5111103;28;20047;-66
2021/10/01 00:38:14;;;;;;;9.02;2.50;;;;;;;11.80;65.92;101796.19;5088963;28;20044;-66
2021/10/01 00:40:42;;;;;;;8.95;2.60;;;;;;;11.80;66.22;101795.38;5088092;28;20048;-66
2021/10/01 00:43:09;;;;;;;10.60;2.72;;;;;;;11.84;65.66;101792.31;5095339;28;20055;-66
2021/10/01 00:45:36;;;;;;;11.85;3.08;;;;;;;11.83;66.40;101790.63;5087712;28;20090;-66
2021/10/01 00:48:04;;;;;;;8.40;2.45;;;;;;;11.78;66.97;101781.38;5090397;28;20561;-66
2021/10/01 00:50:30;;;;;;;10.35;2.50;;;;;;;11.76;65.99;101792.13;5081695;28;20040;-66
2021/10/01 00:52:58;;;;;;;11.65;2.85;;;;;;;11.76;65.67;101781.50;5093922;28;20500;-66
2021/10/01 00:55:25;;;;;;;18.75;3.08;;;;;;;11.64;66.95;101783.44;5090573;28;20066;-66
2021/10/01 00:57:52;;;;;;;13.70;3.05;;;;;;;11.66;66.56;101785.94;5095117;28;20507;-65
2021/10/01 01:00:26;;;;;;;8.18;2.30;;;;;;;11.71;66.51;101787.25;5095373;28;20048;-65
2021/10/01 01:02:57;;;;;;;10.48;2.53;;;;;;;11.63;66.77;101781.75;5091071;28;20443;-66
2021/10/01 01:05:55;;;;;;;10.00;3.05;;;;;;;11.56;66.99;101775.28;5092525;28;20089;-66
2021/10/01 01:08:30;;;;;;;10.18;2.67;;;;;;;11.56;67.17;101775.28;5094611;28;20094;-66
2021/10/01 01:11:06;;;;;;;11.93;2.60;;;;;;;11.58;66.75;101762.72;5077409;28;20048;-65
2021/10/01 01:13:40;;;;;;;9.40;2.50;;;;;;;11.59;67.33;101764.41;5090245;28;20044;-66
2021/10/01 01:16:13;;;;;;;11.85;2.45;;;;;;;11.56;67.55;101769.97;5075081;28;20374;-66
2021/10/01 01:18:48;;;;;;;8.25;2.40;;;;;;;11.52;67.41;101768.59;5074792;28;20052;-65
2021/10/01 01:21:42;;;;;;;10.13;3.20;;;;;;;11.52;67.02;101755.28;5074562;28;20519;-65
2021/10/01 01:24:25;;;;;;;8.35;2.50;;;;;;;11.47;67.61;101765.47;5090535;28;20651;-65
2021/10/01 01:27:48;;;;;;;10.52;2.83;;;;;;;11.39;67.41;101757.31;5074759;28;20072;-65
2021/10/01 01:30:19;;;;;;;11.35;2.88;;;;;;;11.30;67.95;101766.97;5064393;28;20382;-65
2021/10/01 01:33:05;;;;;;;13.68;2.50;;;;;;;11.22;68.25;101756.16;5073454;28;20505;-65
2021/10/01 01:35:34;;;;;;;10.07;2.65;;;;;;;11.27;68.78;101753.94;5074191;28;20032;-65
2021/10/01 01:38:09;;;;;;;11.88;2.75;;;;;;;11.26;67.94;101757.56;5072615;28;20491;-65
2021/10/01 01:40:44;;;;;;;8.30;2.28;;;;;;;11.14;68.11;101746.22;5073786;28;20117;-65
2021/10/01 01:43:13;;;;;;;9.73;3.00;;;;;;;11.14;68.65;101744.38;5073924;28;20041;-65
2021/10/01 01:45:41;;;;;;;13.02;2.88;;;;;;;11.10;68.54;101734.19;5073904;28;20041;-65
2021/10/01 01:48:09;;;;;;;11.23;2.60;;;;;;;11.03;69.03;101748.97;5074305;28;20048;-65
2021/10/01 01:50:39;;;;;;;7.60;2.40;;;;;;;11.06;69.22;101746.88;5073958;28;20127;-65
2021/10/01 01:53:09;;;;;;;14.02;2.60;;;;;;;11.03;69.07;101739.16;5073615;28;20044;-65
2021/10/01 01:55:38;;;;;;;10.23;2.42;;;;;;;11.03;69.11;101735.69;5089372;28;20037;-65
2021/10/01 01:58:06;;;;;;;12.45;2.97;;;;;;;11.11;68.76;101730.53;5073566;28;20378;-65
2021/10/01 02:00:53;;;;;;;9.57;3.00;;;;;;;11.01;68.80;101725.19;5073256;28;20049;-65
2021/10/01 02:03:22;;;;;;;8.95;2.65;;;;;;;11.01;69.35;101725.19;5064980;28;20483;-65
2021/10/01 02:06:01;;;;;;;9.82;2.67;;;;;;;11.04;68.57;101729.38;5067712;28;20037;-66
2021/10/01 02:08:28;;;;;;;9.20;3.20;;;;;;;11.07;68.14;101729.13;5073252;28;20036;-65
2021/10/01 02:10:56;;;;;;;11.05;2.75;;;;;;;10.92;69.40;101718.84;5073210;28;20062;-65
2021/10/01 02:13:24;;;;;;;12.57;2.60;;;;;;;10.87;69.00;101721.06;5073459;28;20047;-65
2021/10/01 02:16:06;;;;;;;9.90;2.38;;;;;;;10.95;69.34;101718.59;5073514;28;20152;-65
2021/10/01 02:18:34;;;;;;;10.13;2.45;;;;;;;11.03;68.91;101709.97;5072916;28;20098;-65
2021/10/01 02:21:02;;;;;;;8.35;2.30;;;;;;;10.96;69.53;101711.47;5073056;28;20044;-65
2021/10/01 02:23:30;;;;;;;11.98;3.22;;;;;;;10.92;69.40;101715.38;5072866;28;20044;-65
2021/10/01 02:28:57;;;;;;;9.15;2.70;;;;;;;10.85;69.16;101703.59;5076970;28;20075;-65
2021/10/01 02:31:33;;;;;;;13.13;2.63;;;;;;;11.04;68.52;101698.38;5090269;28;20040;-66
2021/10/01 02:34:05;;;;;;;10.38;2.72;;;;;;;11.00;68.96;101698.75;5083953;28;20490;-66
2021/10/01 02:36:32;;;;;;;9.80;2.53;;;;;;;10.95;68.46;101693.84;5083644;28;20136;-65
2021/10/01 02:39:00;;;;;;;10.93;2.70;;;;;;;10.82;69.14;101691.41;5084101;28;20135;-65
2021/10/01 02:41:28;;;;;;;10.32;2.38;;;;;;;10.82;69.72;101679.97;5072657;28;20040;-65
2021/10/01 02:43:55;;;;;;;10.43;2.20;;;;;;;10.79;69.76;101683.72;5088356;28;20507;-65
2021/10/01 02:46:21;;;;;;;14.32;2.97;;;;;;;10.83;69.74;101679.84;5072832;28;20091;-65
2021/10/01 02:48:52;;;;;;;16.02;2.60;;;;;;;10.85;69.64;101683.19;5088232;28;20535;-65
2021/10/01 02:51:23;;;;;;;9.23;2.35;;;;;;;10.89;68.92;101679.28;5088289;28;20037;-65
2021/10/01 02:54:02;;;;;;;12.38;2.35;;;;;;;10.81;69.31;101673.81;5072445;28;20075;-65
2021/10/01 02:56:36;;;;;;;8.63;2.50;;;;;;;10.74;69.52;101675.31;5072630;28;20442;-65
2021/10/01 02:59:04;;;;;;;11.88;2.60;;;;;;;10.74;69.58;101673.50;5072738;28;20071;-65
2021/10/01 03:01:31;;;;;;;8.88;2.42;;;;;;;10.87;69.93;101675.09;5072646;28;20570;-65
2021/10/01 03:04:04;;;;;;;10.23;2.50;;;;;;;10.77;70.11;101677.72;5068527;28;20412;-65
2021/10/01 03:06:34;;;;;;;9.85;2.35;;;;;;;10.81;69.50;101676.47;5084866;28;20040;-65
2021/10/01 03:09:04;;;;;;;17.00;2.80;;;;;;;10.86;69.85;101661.00;5084222;28;20397;-66
2021/10/01 03:11:35;;;;;;;12.13;2.55;;;;;;;10.92;69.24;101662.28;5072990;28;20045;-65
2021/10/01 03:14:04;;;;;;;8.73;2.13;;;;;;;10.89;69.18;101660.72;5072696;28;20271;-65
2021/10/01 03:16:32;;;;;;;12.00;2.45;;;;;;;10.88;69.76;101658.22;5072330;28;20040;-65
2021/10/01 03:19:05;;;;;;;10.80;2.33;;;;;;;10.91;69.27;101658.78;5072580;28;20040;-65
2021/10/01 03:21:33;;;;;;;10.90;2.42;;;;;;;10.88;68.99;101655.56;5072430;28;20298;-64
2021/10/01 03:24:03;;;;;;;8.95;2.20;;;;;;;11.03;68.95;101656.03;5072187;28;20045;-65
2021/10/01 03:26:31;;;;;;;11.65;2.90;;;;;;;11.02;68.84;101651.69;5072484;28;20101;-65
2021/10/01 03:28:59;;;;;;;11.38;2.45;;;;;;;11.05;68.77;101654.91;5071493;28;20040;-65
2021/10/01 03:31:27;;;;;;;10.25;2.30;;;;;;;11.04;68.65;101657.69;5085782;28;20496;-65
2021/10/01 03:33:55;;;;;;;13.40;3.00;;;;;;;10.96;68.86;101655.72;5088114;28;20437;-65
2021/10/01 03:36:22;;;;;;;10.40;2.50;;;;;;;10.97;69.00;101659.19;5072360;28;20397;-65
2021/10/01 03:38:55;;;;;;;11.95;2.60;;;;;;;10.96;68.70;101655.72;5071527;28;20044;-65
2021/10/01 03:41:23;;;;;;;12.68;2.90;;;;;;;10.92;69.14;101656.97;5071733;28;20135;-65
2021/10/01 03:43:52;;;;;;;11.52;2.42;;;;;;;10.93;68.74;101640.03;5072631;28;20110;-65
2021/10/01 03:46:19;;;;;;;10.02;2.72;;;;;;;10.85;68.93;101640.72;5087528;28;20041;-65
2021/10/01 03:48:46;;;;;;;12.65;2.65;;;;;;;10.81;69.17;101641.97;5087534;28;20044;-65
2021/10/01 03:51:13;;;;;;;9.27;2.53;;;;;;;10.83;68.95;101645.31;5070853;28;20045;-65
2021/10/01 03:53:40;;;;;;;11.48;2.88;;;;;;;10.81;69.46;101641.97;5087310;28;20049;-65
2021/10/01 03:56:16;;;;;;;11.82;2.78;;;;;;;10.72;69.44;101640.94;5072216;28;20489;-65
2021/10/01 03:58:44;;;;;;;10.18;2.67;;;;;;;10.77;70.04;101648.53;5087505;28;20040;-65
2021/10/01 04:01:11;;;;;;;11.45;2.50;;;;;;;10.74;70.18;101640.81;5072104;28;20123;-65
2021/10/01 04:03:38;;;;;;;10.77;2.72;;;;;;;10.83;69.60;101634.72;5086092;28;20052;-65
2021/10/01 04:06:07;;;;;;;6.90;2.33;;;;;;;10.81;69.89;101635.81;5072044;28;20370;-66
2021/10/01 04:08:34;;;;;;;9.02;2.30;;;;;;;10.76;69.36;101623.78;5086745;28;20047;-66
2021/10/01 04:11:02;;;;;;;11.77;2.83;;;;;;;10.82;69.52;101621.56;5072076;28;20052;-66
2021/10/01 04:13:29;;;;;;;10.77;2.55;;;;;;;10.82;69.66;101616.25;5071939;28;20563;-66
2021/10/01 04:15:55;;;;;;;6.25;2.28;;;;;;;10.80;68.96;101616.38;5087098;28;20033;-65
2021/10/01 04:18:24;;;;;;;9.68;2.72;;;;;;;10.84;68.69;101616.97;5071680;28;20405;-65
2021/10/01 04:20:51;;;;;;;9.55;2.60;;;;;;;10.88;68.56;101611.25;5071251;28;20057;-66
2021/10/01 04:23:19;;;;;;;11.38;2.20;;;;;;;10.86;69.44;101610.56;5069942;28;20469;-65
2021/10/01 04:26:01;;;;;;;12.10;2.65;;;;;;;10.80;69.08;101613.72;5077323;28;20383;-66
2021/10/01 04:28:28;;;;;;;11.43;2.65;;;;;;;10.84;69.29;101609.00;5053974;28;20041;-65
2021/10/01 04:30:59;;;;;;;12.50;2.90;;;;;;;10.97;68.24;101608.75;5045813;28;20446;-65
2021/10/01 04:33:28;;;;;;;12.27;2.50;;;;;;;10.78;68.63;101612.19;5065276;28;20053;-65
2021/10/01 04:35:56;;;;;;;10.73;2.78;;;;;;;10.78;68.62;101609.53;5064926;28;20557;-65
2021/10/01 04:38:26;;;;;;;11.95;2.92;;;;;;;10.82;68.96;101603.81;5065915;28;20047;-65
2021/10/01 04:40:53;;;;;;;12.02;2.50;;;;;;;10.69;68.98;101608.53;5056342;28;20111;-65
2021/10/01 04:43:20;;;;;;;13.10;2.53;;;;;;;10.72;69.22;101608.28;5068477;28;20041;-65
2021/10/01 04:46:07;;;;;;;9.77;2.47;;;;;;;10.63;69.47;101603.78;5067886;28;20047;-64
2021/10/01 04:48:36;;;;;;;11.57;2.50;;;;;;;10.76;68.94;101605.19;5066669;28;20040;-65
2021/10/01 04:51:03;;;;;;;7.80;2.45;;;;;;;10.71;68.64;101601.28;5051579;28;20044;-65
2021/10/01 04:53:29;;;;;;;7.32;2.45;;;;;;;10.58;69.52;101606.81;5067754;28;20048;-65
2021/10/01 04:55:56;;;;;;;14.07;2.65;;;;;;;10.65;69.48;101604.47;5069222;28;20063;-65
2021/10/01 04:58:23;;;;;;;11.25;2.88;;;;;;;10.60;69.72;101593.41;5069334;28;20094;-66
2021/10/01 05:01:08;;;;;;;9.80;3.13;;;;;;;10.60;69.08;101586.28;5131032;27;20334;-65
2021/10/01 05:03:54;;;;;;;10.77;2.97;;;;;;;10.61;69.46;101590.63;5129142;27;20066;-65
2021/10/01 05:06:42;;;;;;;13.15;2.97;;;;;;;10.70;69.20;101581.03;5129422;28;20035;-65
2021/10/01 05:09:29;;;;;;;11.43;2.38;;;;;;;10.63;69.72;101577.22;5130371;28;20061;-65
2021/10/01 05:12:16;;;;;;;9.60;2.70;;;;;;;10.56;69.17;101584.88;5130694;28;20039;-66
2021/10/01 05:15:03;;;;;;;8.68;2.40;;;;;;;10.56;68.74;101582.22;5126098;28;20046;-65
2021/10/01 05:17:52;;;;;;;10.10;2.90;;;;;;;10.48;69.50;101585.56;5130187;28;20572;-65
2021/10/01 05:20:39;;;;;;;8.77;2.60;;;;;;;10.62;68.55;101580.84;5129712;28;20045;-65
2021/10/01 05:23:13;;;;;;;12.25;2.70;;;;;;;10.55;69.11;101573.44;5130039;27;20035;-66
2021/10/01 05:25:40;;;;;;;9.48;2.55;;;;;;;10.51;68.79;101576.47;5130608;27;20054;-66
2021/10/01 05:28:07;;;;;;;11.15;2.53;;;;;;;10.43;69.27;101571.00;5129268;27;20047;-66
2021/10/01 05:30:34;;;;;;;13.15;2.58;;;;;;;10.46;69.15;101571.59;5130314;27;20044;-66
2021/10/01 05:33:05;;;;;;;10.00;2.60;;;;;;;10.47;69.50;101569.75;5128675;28;20089;-66
2021/10/01 05:35:35;;;;;;;12.63;2.45;;;;;;;10.58;68.51;101572.31;5128422;28;20075;-66
2021/10/01 05:38:03;;;;;;;6.95;2.33;;;;;;;10.52;68.66;101575.50;5111724;28;20044;-66
2021/10/01 05:40:30;;;;;;;9.35;2.45;;;;;;;10.65;68.37;101573.47;5120419;27;20044;-66
2021/10/01 05:42:58;;;;;;;12.68;2.42;;;;;;;10.58;68.23;101572.31;5124107;28;20055;-66
2021/10/01 05:45:25;;;;;;;11.77;2.45;;;;;;;10.60;68.37;101574.84;5129712;28;20039;-66
2021/10/01 05:48:12;;;;;;;7.95;2.25;;;;;;;10.53;67.93;101574.53;5129480;28;20407;-66
2021/10/01 05:51:04;;;;;;;12.23;2.60;;;;;;;10.52;67.88;101563.06;5128319;28;20039;-66
2021/10/01 05:54:13;;;;;;;7.28;2.50;;;;;;;10.42;68.23;101574.63;5128140;28;20135;-65
2021/10/01 05:56:58;;;;;;;12.30;2.90;;;;;;;10.53;68.33;101571.88;5128787;28;20073;-66
2021/10/01 05:59:30;;;;;;;8.20;2.53;;;;;;;10.56;67.66;101566.31;5125747;27;20150;-66
2021/10/01 06:01:57;;;;;;;11.25;2.85;;;;;;;10.54;68.25;101562.94;5109158;28;20457;-65
2021/10/01 06:04:24;;;;;;;12.43;2.65;;;;;;;10.61;67.55;101560.63;5106975;28;20081;-65
2021/10/01 06:06:51;;;;;;;10.68;2.42;;;;;;;10.63;67.81;101562.16;5108900;28;20526;-65
2021/10/01 06:09:19;;;;;;;12.93;2.60;;;;;;;10.60;67.55;101558.91;5112799;28;20484;-65
2021/10/01 06:11:46;;;;;;;9.05;2.22;;;;;;;10.57;67.79;101552.91;5103965;28;20234;-65
2021/10/01 06:14:18;;;;;;;12.93;3.03;;;;;;;10.58;67.69;101553.75;5095463;28;20550;-66
2021/10/01 06:16:45;;;;;;;10.75;2.97;;;;;;;10.63;67.30;101543.56;5094948;28;20561;-66
2021/10/01 06:19:12;;;;;;;10.23;2.42;;;;;;;10.70;67.71;101552.69;5094805;28;20044;-65
2021/10/01 06:21:39;;;;;;;10.50;2.63;;;;;;;10.63;67.84;101554.19;5095085;28;20032;-66
2021/10/01 06:24:05;;;;;;;7.88;2.50;;;;;;;10.62;66.69;101551.66;5092855;28;20055;-66
2021/10/01 06:26:32;;;;;;;8.55;2.10;;;;;;;10.68;66.77;101548.50;5075816;28;20039;-65
2021/10/01 06:28:59;;;;;;;12.63;2.28;;;;;;;10.82;66.10;101550.72;5095096;28;20047;-66
2021/10/01 06:31:26;;;;;;;6.28;2.30;;;;;;;10.72;67.46;101552.53;5093081;28;20131;-66
2021/10/01 06:33:53;;;;;;;9.80;2.50;;;;;;;10.76;67.28;101556.59;5076736;28;20032;-66
2021/10/01 06:36:22;;;;;;;14.98;2.33;;;;;;;10.75;67.53;101558.41;5094976;28;20377;-66
2021/10/01 06:38:51;;;;;;;10.18;2.28;;;;;;;10.75;66.04;101560.22;5097312;28;20088;-66
2021/10/01 06:41:18;;;;;;;9.65;2.40;;;;;;;10.81;66.57;101554.38;5072155;28;20059;-65
2021/10/01 06:43:45;;;;;;;10.38;2.10;;;;;;;10.91;66.67;101555.25;5115043;28;20035;-66
2021/10/01 06:46:41;;;;;;;8.82;2.40;;;;;;;11.09;66.15;101560.72;5104537;28;20048;-65
2021/10/01 06:49:17;;;;;;;7.95;2.00;;;;;;;11.17;65.19;101553.88;5105579;28;20048;-66
2021/10/01 06:52:09;;;;;;;9.05;2.38;;;;;;;11.23;65.13;101550.69;5093126;28;20047;-66
2021/10/01 07:39:24;;;;;;;11.07;2.30;;;;;;;12.00;62.37;101554.28;5094992;28;20050;-65
2021/10/01 08:20:32;;;;;;;9.43;2.10;;;;;;;13.63;58.89;101535.88;5091187;28;20048;-67
2021/10/01 08:22:59;;;;;;;10.55;2.55;;;;;;;13.75;58.70;101536.44;5077467;28;20052;-66
2021/10/01 08:25:26;;;;;;;10.20;2.50;;;;;;;13.77;58.74;101532.66;5092285;28;20123;-66
2021/10/01 08:27:53;;;;;;;9.45;2.30;;;;;;;13.98;58.03;101529.59;5073263;28;20051;-66
2021/10/01 08:30:20;;;;;;;11.32;2.15;;;;;;;14.04;57.57;101519.31;5090827;28;20401;-67
2021/10/01 08:32:48;;;;;;;10.35;2.20;;;;;;;14.14;57.96;101517.38;5076619;28;20101;-66
2021/10/01 08:35:15;;;;;;;9.73;2.47;;;;;;;14.30;57.24;101511.28;5086488;28;20535;-65
2021/10/01 08:37:43;;;;;;;8.65;2.17;;;;;;;14.51;57.95;101510.84;5092253;28;20088;-65
2021/10/01 08:40:11;;;;;;;14.20;2.80;;;;;;;14.55;56.78;101506.84;5090625;28;20488;-65
2021/10/01 08:42:45;;;;;;;11.65;2.22;;;;;;;14.67;57.95;101505.59;5091368;28;20043;-65
2021/10/01 08:45:14;;;;;;;11.45;2.30;;;;;;;14.75;56.33;101496.78;5094626;28;20127;-64
2021/10/01 08:47:42;;;;;;;8.95;2.20;;;;;;;14.98;58.58;101487.13;5057295;28;20040;-64
2021/10/01 08:50:12;;;;;;;11.07;2.05;;;;;;;15.28;58.01;101492.88;5079099;28;20377;-64
2021/10/01 08:52:38;;;;;;;19.23;2.20;;;;;;;15.41;56.13;101486.16;5075880;28;20369;-65
2021/10/01 08:55:08;;;;;;;9.15;2.42;;;;;;;15.49;56.28;101487.00;5092838;28;20131;-64
2021/10/01 08:57:35;;;;;;;11.43;2.33;;;;;;;15.55;54.62;101491.69;5086520;28;20117;-64
2021/10/01 09:00:07;;;;;;;9.35;2.22;;;;;;;15.68;57.30;101479.59;5080019;28;20048;-64
2021/10/01 09:02:33;;;;;;;10.20;2.45;;;;;;;15.80;55.32;101477.47;5071497;28;20450;-64
2021/10/01 09:05:00;;;;;;;12.38;2.30;;;;;;;16.03;53.28;101480.25;5084824;28;21116;-64
2021/10/01 09:07:27;;;;;;;9.85;2.33;;;;;;;16.19;50.93;101477.53;5086425;28;20043;-63
2021/10/01 09:09:54;;;;;;;10.07;2.25;;;;;;;16.94;51.29;101488.72;5090510;28;20040;-64
2021/10/01 09:12:25;;;;;;;10.93;2.40;;;;;;;18.27;47.39;101480.09;5087899;28;20041;-64
2021/10/01 09:14:56;;;;;;;10.27;2.60;;;;;;;19.44;44.64;101472.84;5088527;28;20032;-64
2021/10/01 09:17:28;;;;;;;9.23;2.00;;;;;;;20.07;41.59;101476.41;5073489;28;20040;-64
2021/10/01 09:19:57;;;;;;;12.13;1.83;;;;;;;20.76;40.00;101471.13;5089067;28;20046;-64
2021/10/01 09:22:35;;;;;;;11.98;1.90;;;;;;;21.89;37.29;101478.41;5088803;28;20494;-64
2021/10/01 09:25:12;;;;;;;13.98;2.35;;;;;;;22.30;37.09;101469.97;5073396;28;20044;-64
2021/10/01 09:27:42;;;;;;;13.45;2.45;;;;;;;22.95;37.34;101466.28;5088291;28;20115;-64
2021/10/01 09:30:12;;;;;;;6.95;1.98;;;;;;;23.34;33.86;101457.06;5088998;28;20235;-66
2021/10/01 09:32:40;;;;;;;12.45;2.70;;;;;;;23.45;34.30;101455.53;5091123;28;20440;-65
2021/10/01 09:35:11;;;;;;;13.07;2.30;;;;;;;23.66;33.61;101465.09;5071657;28;20044;-65
2021/10/01 09:37:38;;;;;;;11.67;2.60;;;;;;;24.00;32.19;101445.81;5073044;28;20067;-65
2021/10/01 09:40:06;;;;;;;11.43;2.45;;;;;;;24.43;32.28;101445.69;5088989;28;20089;-65
2021/10/01 09:42:43;;;;;;;13.20;2.22;;;;;;;24.87;30.66;101442.78;5081978;28;20471;-65
2021/10/01 09:45:12;;;;;;;9.48;2.20;;;;;;;24.87;31.46;101438.19;5065810;28;20044;-65
2021/10/01 09:47:46;;;;;;;17.70;2.15;;;;;;;24.75;30.52;101437.31;5093215;28;20044;-64
2021/10/01 09:50:32;;;;;;;14.00;2.50;;;;;;;25.31;31.48;101429.78;5088378;28;20036;-64
2021/10/01 09:53:02;;;;;;;12.00;2.88;;;;;;;25.65;29.92;101435.44;5078289;28;20508;-65
2021/10/01 09:55:34;;;;;;;8.80;2.17;;;;;;;25.67;30.07;101436.84;5070440;28;20044;-65
2021/10/01 10:06:06;;;;;;;20.63;2.72;;;;;;;25.89;30.11;101414.47;5083059;27;20385;-64
2021/10/01 10:08:38;;;;;;;13.85;2.03;;;;;;;26.01;29.35;101411.75;5070987;28;20386;-64
2021/10/01 10:11:08;;;;;;;10.60;2.25;;;;;;;26.40;28.48;101401.91;5079844;28;20397;-65
2021/10/01 10:13:44;;;;;;;17.75;2.42;;;;;;;26.44;28.81;101404.97;5059675;28;20071;-64
2021/10/01 10:16:17;;;;;;;8.88;2.20;;;;;;;26.48;27.03;101406.13;5067805;28;20569;-65
2021/10/01 10:18:45;;;;;;;16.00;2.40;;;;;;;26.20;29.37;101410.50;5076103;28;20508;-64
2021/10/01 10:21:13;;;;;;;13.57;2.50;;;;;;;26.56;29.18;101404.88;5067053;28;20045;-63
2021/10/01 10:23:40;;;;;;;12.93;2.10;;;;;;;27.06;27.95;101404.13;5092688;28;20071;-64
2021/10/01 10:26:08;;;;;;;15.38;2.40;;;;;;;26.77;27.73;101398.75;5048366;28;20529;-63
2021/10/01 10:28:38;;;;;;;13.40;2.42;;;;;;;27.11;28.17;101389.78;5067004;28;20114;-65
2021/10/01 10:31:08;;;;;;;8.90;2.22;;;;;;;26.78;28.55;101397.69;5072728;28;20041;-64
2021/10/01 10:33:43;;;;;;;10.90;2.25;;;;;;;26.96;27.47;101395.78;5069879;28;20072;-64
2021/10/01 10:42:07;;;;;;;17.33;2.45;;;;;;;26.33;28.30;101386.81;5131637;27;20734;-64
2021/10/01 10:44:55;;;;;;;18.75;2.35;;;;;;;25.91;29.02;101384.34;5124813;27;20090;-65
2021/10/01 10:47:44;;;;;;;16.42;2.10;;;;;;;24.66;31.10;101384.47;5121606;27;20039;-65
2021/10/01 10:50:29;;;;;;;8.25;2.10;;;;;;;24.60;32.09;101375.38;5129169;27;20085;-65
2021/10/01 10:53:21;;;;;;;10.00;2.10;;;;;;;23.32;33.71;101366.28;5117259;27;20048;-64
2021/10/01 10:55:53;;;;;;;7.35;2.00;;;;;;;22.62;35.55;101365.41;5132259;27;20544;-64
2021/10/01 11:04:27;;;;;;;8.02;1.90;;;;;;;21.70;36.89;101364.81;5085333;27;20903;-67
2021/10/01 11:06:54;;;;;;;12.13;2.00;;;;;;;21.82;37.52;101348.78;5091005;28;20925;-67
2021/10/01 11:09:25;;;;;;;13.45;2.30;;;;;;;22.28;36.29;101352.34;5086624;28;21284;-66
2021/10/01 11:11:57;;;;;;;13.70;2.00;;;;;;;22.67;35.48;101340.44;5080815;28;20040;-67
2021/10/01 11:14:25;;;;;;;13.20;2.88;;;;;;;23.35;35.48;101336.09;5089566;28;20039;-66
2021/10/01 11:19:38;;;;;;;14.40;2.60;;;;;;;22.69;35.93;101338.34;5116095;27;20399;-65
2021/10/01 11:22:28;;;;;;;17.10;2.30;;;;;;;22.48;35.83;101326.00;5080569;28;20112;-65
2021/10/01 11:25:00;;;;;;;10.35;2.33;;;;;;;22.65;35.70;101325.44;5080750;28;20050;-66
2021/10/01 11:27:27;;;;;;;10.02;2.20;;;;;;;22.86;35.27;101326.97;5100147;28;20485;-66
2021/10/01 11:29:54;;;;;;;12.00;2.10;;;;;;;23.14;35.43;101326.50;5101170;28;20043;-65
2021/10/01 11:32:23;;;;;;;15.30;2.13;;;;;;;23.09;35.63;101315.56;5097888;28;20045;-66
2021/10/01 11:34:54;;;;;;;12.98;2.30;;;;;;;23.06;35.64;101313.28;5069106;28;20035;-65
2021/10/01 11:37:44;;;;;;;14.98;2.42;;;;;;;23.52;35.04;101318.19;5081920;28;20048;-66
2021/10/01 11:42:50;;;;;;;13.93;2.65;;;;;;;23.23;35.94;101313.50;5129591;27;20424;-66
2021/10/01 11:45:22;;;;;;;14.98;2.53;;;;;;;23.39;34.75;101312.91;5092427;28;20119;-66
2021/10/01 11:50:38;;;;;;;13.13;2.05;;;;;;;23.78;34.17;101305.38;5104710;27;20150;-67
2021/10/01 11:53:15;;;;;;;19.17;3.30;;;;;;;23.63;33.20;101292.25;5078623;28;20049;-66
2021/10/01 11:55:50;;;;;;;13.63;2.55;;;;;;;23.25;33.78;101290.59;5086567;28;20042;-66
2021/10/01 11:58:19;;;;;;;17.83;2.97;;;;;;;23.55;33.34;101284.41;5097143;28;20048;-66
2021/10/01 12:00:46;;;;;;;11.93;2.30;;;;;;;23.12;34.46;101283.47;5103164;28;20105;-74
2021/10/01 12:03:17;;;;;;;14.80;2.97;;;;;;;22.67;35.38;101288.22;5097379;28;20508;-74
2021/10/01 12:05:47;;;;;;;7.60;2.10;;;;;;;22.71;36.45;101286.72;5102118;28;20036;-67
2021/10/01 12:08:16;;;;;;;11.27;1.95;;;;;;;22.40;35.33;101278.44;5086069;28;20097;-66
2021/10/01 12:10:47;;;;;;;11.57;2.35;;;;;;;22.51;36.20;101274.22;5107564;28;20054;-67
2021/10/01 12:13:33;;;;;;;10.63;2.28;;;;;;;22.24;35.96;101271.66;5086825;28;20126;-65
2021/10/01 12:16:04;;;;;;;14.75;2.90;;;;;;;22.59;33.62;101270.38;5088485;28;20116;-65
2021/10/01 12:21:17;;;;;;;13.80;2.63;;;;;;;22.92;33.56;101261.13;5085171;28;20125;-66
2021/10/01 12:23:54;;;;;;;10.02;2.55;;;;;;;23.11;34.21;101260.16;5082540;28;20055;-66
2021/10/01 12:26:42;;;;;;;14.38;2.33;;;;;;;23.41;34.62;101256.66;5078368;28;20485;-65
2021/10/01 12:29:13;;;;;;;16.65;7.95;;;;;;;23.78;32.67;101248.50;5073689;28;20068;-70
2021/10/01 12:31:59;;;;;;;18.58;6.32;;;;;;;23.19;33.32;101240.06;5077573;28;20044;-76
2021/10/01 12:34:28;;;;;;;21.42;10.90;;;;;;;23.01;33.75;101248.97;5064944;28;20497;-69
2021/10/01 12:37:02;;;;;;;12.65;2.08;;;;;;;22.75;34.05;101237.38;5064957;28;20045;-72
2021/10/01 12:39:31;;;;;;;11.40;2.30;;;;;;;22.82;35.62;101234.63;5083280;28;20040;-73
2021/10/01 12:42:04;;;;;;;9.65;2.10;;;;;;;22.61;35.17;101233.16;5080395;28;20048;-74
2021/10/01 12:44:36;;;;;;;11.75;2.40;;;;;;;22.64;34.78;101234.59;5085161;28;20378;-68
2021/10/01 12:47:20;;;;;;;9.38;2.20;;;;;;;22.84;35.08;101239.81;5079810;28;20048;-70
2021/10/01 12:53:00;;;;;;;12.15;2.10;;;;;;;22.40;36.78;101229.78;5127279;27;20395;-67
2021/10/01 12:55:30;;;;;;;9.13;2.28;;;;;;;22.26;36.59;101233.66;5095212;28;20496;-67
2021/10/01 12:57:56;;;;;;;54.22;29.88;;;;;;;22.07;38.57;101235.44;5113070;28;20040;-70
2021/10/01 13:00:30;;;;;;;10.35;3.03;;;;;;;22.39;35.07;101225.47;5106242;28;20116;-70
2021/10/01 13:03:01;;;;;;;12.13;2.40;;;;;;;22.93;34.31;101227.66;5102377;28;20131;-70
2021/10/01 13:05:30;;;;;;;12.95;2.28;;;;;;;22.66;35.33;101227.09;5107678;28;20089;-71
2021/10/01 13:08:03;;;;;;;8.68;2.20;;;;;;;22.33;35.75;101225.50;5112447;27;20137;-70
2021/10/01 13:10:38;;;;;;;14.90;2.60;;;;;;;21.72;37.43;101221.50;5110787;28;20463;-71
2021/10/01 13:13:22;;;;;;;12.05;2.30;;;;;;;21.44;37.86;101215.38;5113087;28;20498;-70
2021/10/01 13:15:55;;;;;;;14.07;2.30;;;;;;;21.22;39.04;101220.25;5111293;28;20066;-71
2021/10/01 13:18:28;;;;;;;19.63;2.83;;;;;;;20.86;38.93;101210.81;5112866;28;20126;-70
2021/10/01 13:21:15;;;;;;;10.68;2.20;;;;;;;20.52;38.82;101214.59;5107441;28;20093;-70
2021/10/01 13:29:05;;;;;;;9.55;2.10;;;;;;;20.26;41.19;101213.53;5093807;27;20124;-69
2021/10/01 13:31:40;;;;;;;8.93;2.28;;;;;;;19.96;39.73;101204.22;5084858;28;20080;-70
2021/10/01 13:34:13;;;;;;;13.30;3.45;;;;;;;19.88;41.13;101197.97;5064016;22;20053;-70
2021/10/01 13:36:41;;;;;;;11.27;2.08;;;;;;;19.73;41.20;101198.13;5010860;28;20041;-70
2021/10/01 13:39:10;;;;;;;11.45;2.30;;;;;;;19.64;41.03;101196.63;5007044;28;20116;-70
2021/10/01 13:41:38;;;;;;;14.82;2.60;;;;;;;19.77;42.13;101195.03;5005518;28;20503;-72
2021/10/01 13:44:05;;;;;;;12.82;2.35;;;;;;;19.92;41.80;101196.53;5004826;28;20046;-73
2021/10/01 13:46:32;;;;;;;8.68;2.13;;;;;;;20.05;40.74;101192.19;4997051;28;20052;-73